Time;durP1;ratioP1;P1;durP2;ratioP2;P2;SDS_P1;SDS_P2;PMS_P1;PMS_P2;Temp;Humidity;BMP_temperature;BMP_pressure;BME280_temperature;BME280_humidity;BME280_pressure;Samples;Min_cycle;Max_cycle;Signal;HPM_P1;HPM_P2
2022/11/29 00:00:58;;;;;;;56.17;50.38;;;;;;;2.14;100.00;101869.50;5070418;28;20053;-85
2022/11/29 00:03:25;;;;;;;53.97;48.35;;;;;;;2.06;100.00;101866.66;5065771;28;20118;-86
2022/11/29 00:05:53;;;;;;;52.88;47.28;;;;;;;2.11;100.00;101866.28;5068196;28;20048;-84
2022/11/29 00:08:21;;;;;;;51.30;46.17;;;;;;;2.22;100.00;101864.47;5068458;28;20044;-83
2022/11/29 00:10:50;;;;;;;53.53;48.40;;;;;;;2.28;100.00;101871.84;5068999;28;20118;-85
2022/11/29 00:13:17;;;;;;;56.67;50.92;;;;;;;2.24;100.00;101874.81;5066883;28;20059;-85
2022/11/29 00:15:45;;;;;;;54.45;48.80;;;;;;;2.22;100.00;101867.09;5066570;28;20105;-83
2022/11/29 00:18:12;;;;;;;52.63;46.78;;;;;;;2.16;100.00;101872.00;5067839;28;20056;-85
2022/11/29 00:20:39;;;;;;;56.72;51.20;;;;;;;2.18;100.00;101878.78;5064135;28;20052;-84
2022/11/29 00:23:06;;;;;;;57.15;51.40;;;;;;;2.18;100.00;101870.94;5066509;28;20469;-85
2022/11/29 00:25:33;;;;;;;54.03;48.35;;;;;;;2.20;100.00;101870.78;5068994;28;20056;-84
2022/11/29 00:28:01;;;;;;;52.78;47.58;;;;;;;2.25;100.00;101869.47;5062515;28;20044;-84
2022/11/29 00:30:28;;;;;;;54.97;49.45;;;;;;;2.32;100.00;101874.22;5061183;28;20049;-83
2022/11/29 00:32:58;;;;;;;55.78;49.90;;;;;;;2.15;100.00;101872.94;5065461;28;20534;-84
2022/11/29 00:35:24;;;;;;;55.28;49.55;;;;;;;2.23;100.00;101873.16;5064906;28;20064;-84
2022/11/29 00:37:51;;;;;;;57.03;51.22;;;;;;;2.20;100.00;101865.56;5064838;28;20045;-86
2022/11/29 00:40:18;;;;;;;56.20;50.80;;;;;;;2.10;100.00;101860.22;5070681;28;20048;-87
2022/11/29 00:42:45;;;;;;;57.42;51.88;;;;;;;2.23;100.00;101870.53;5064873;28;20441;-85
2022/11/29 00:45:13;;;;;;;59.08;53.08;;;;;;;2.22;100.00;101854.00;5068901;28;20488;-84
2022/11/29 00:47:40;;;;;;;60.28;54.17;;;;;;;2.19;100.00;101863.91;5063414;28;20057;-84
2022/11/29 00:50:08;;;;;;;62.75;57.15;;;;;;;2.19;100.00;101859.47;5065656;28;20076;-83
2022/11/29 00:52:34;;;;;;;56.72;51.03;;;;;;;2.18;100.00;101859.59;5061776;28;20063;-84
2022/11/29 00:55:01;;;;;;;56.00;50.63;;;;;;;2.20;100.00;101852.44;5066000;28;20045;-85
2022/11/29 00:57:28;;;;;;;56.13;50.47;;;;;;;2.27;100.00;101849.22;5066368;28;20107;-84
2022/11/29 00:59:55;;;;;;;56.38;50.95;;;;;;;2.16;100.00;101840.56;5067785;28;20494;-85
2022/11/29 01:02:23;;;;;;;53.35;48.05;;;;;;;2.24;100.00;101838.13;5182527;22;20118;-81
2022/11/29 01:04:50;;;;;;;56.67;51.10;;;;;;;2.11;100.00;101838.28;5055339;28;20049;-83
2022/11/29 01:07:17;;;;;;;60.28;53.90;;;;;;;2.18;100.00;101830.75;5055064;28;20106;-82
2022/11/29 01:09:43;;;;;;;59.25;53.08;;;;;;;2.20;100.00;101834.91;5054318;28;20401;-81
2022/11/29 01:12:10;;;;;;;56.92;51.13;;;;;;;2.12;100.00;101828.63;5055504;28;20447;-80
2022/11/29 01:14:37;;;;;;;57.28;49.33;;;;;;;2.14;100.00;101821.47;5055088;28;20040;-82
2022/11/29 01:17:04;;;;;;;59.38;53.30;;;;;;;2.08;100.00;101816.75;5055207;28;20060;-81
2022/11/29 01:19:32;;;;;;;61.78;55.83;;;;;;;2.25;100.00;101824.06;5055580;28;20052;-81
2022/11/29 01:21:59;;;;;;;57.97;51.92;;;;;;;2.26;100.00;101823.09;5050799;28;20053;-82
2022/11/29 01:24:25;;;;;;;57.28;51.40;;;;;;;2.22;100.00;101825.16;5045802;28;20049;-83
2022/11/29 01:26:52;;;;;;;55.05;49.42;;;;;;;1.97;100.00;101825.47;5055105;28;20132;-82
2022/11/29 01:29:22;;;;;;;59.72;53.95;;;;;;;2.15;100.00;101821.38;5055641;28;20107;-82
2022/11/29 01:31:49;;;;;;;52.70;47.47;;;;;;;2.02;100.00;101824.13;5055148;28;20448;-82
2022/11/29 01:34:15;;;;;;;51.15;46.05;;;;;;;2.04;100.00;101826.63;5047362;28;20132;-81
2022/11/29 01:36:43;;;;;;;52.15;47.33;;;;;;;2.02;100.00;101820.69;5054964;28;20052;-82
2022/11/29 01:39:10;;;;;;;55.28;49.72;;;;;;;1.96;100.00;101821.16;5054501;28;20052;-80
2022/11/29 01:41:37;;;;;;;52.03;46.45;;;;;;;1.87;100.00;101825.34;5055307;28;20440;-82
2022/11/29 01:44:47;;;;;;;52.25;46.70;;;;;;;2.27;100.00;101815.13;5054289;28;20052;-81
2022/11/29 01:47:17;;;;;;;54.60;49.15;;;;;;;2.14;100.00;101817.06;5047593;28;20119;-84
2022/11/29 01:49:48;;;;;;;56.10;50.55;;;;;;;2.18;100.00;101825.50;5054384;28;20473;-81
2022/11/29 01:52:17;;;;;;;53.53;48.10;;;;;;;2.01;100.00;101826.88;5054526;28;20049;-82
2022/11/29 01:54:49;;;;;;;56.60;50.83;;;;;;;2.13;100.00;101828.53;5054395;28;20063;-82
2022/11/29 01:57:18;;;;;;;59.50;53.53;;;;;;;2.02;100.00;101831.16;5055278;28;20053;-82
2022/11/29 01:59:48;;;;;;;56.80;51.03;;;;;;;2.08;100.00;101833.28;5054241;28;20045;-81
2022/11/29 02:02:20;;;;;;;54.40;48.92;;;;;;;2.22;100.00;101824.31;5054060;28;20119;-81
2022/11/29 02:04:49;;;;;;;57.97;52.30;;;;;;;2.38;100.00;101821.28;5054173;28;20049;-81
2022/11/29 02:07:16;;;;;;;58.58;52.67;;;;;;;2.25;100.00;101811.78;5054224;28;20057;-83
2022/11/29 02:09:43;;;;;;;57.47;50.42;;;;;;;2.20;100.00;101806.09;5054713;28;20059;-84
2022/11/29 02:12:21;;;;;;;57.33;50.78;;;;;;;2.21;100.00;101813.00;5054885;28;20436;-81
2022/11/29 02:15:07;;;;;;;55.22;49.88;;;;;;;2.27;100.00;101814.31;5054475;28;20465;-82
2022/11/29 02:17:49;;;;;;;57.15;51.20;;;;;;;2.18;100.00;101821.13;5054689;28;20144;-80
2022/11/29 02:20:55;;;;;;;54.55;48.95;;;;;;;2.25;100.00;101811.78;5053303;28;20485;-82
2022/11/29 02:23:40;;;;;;;63.33;57.08;;;;;;;2.33;100.00;101813.81;5047011;28;20052;-82
2022/11/29 02:26:21;;;;;;;63.30;56.63;;;;;;;2.19;100.00;101816.72;5050356;28;20497;-81
2022/11/29 02:29:12;;;;;;;61.03;51.75;;;;;;;2.15;100.00;101825.75;5053886;28;20492;-82
2022/11/29 02:32:17;;;;;;;92.70;72.30;;;;;;;2.16;100.00;101825.66;5053834;28;20488;-82
2022/11/29 02:35:12;;;;;;;76.80;68.55;;;;;;;2.25;100.00;101838.00;5012442;28;20053;-84
2022/11/29 02:37:59;;;;;;;65.50;55.35;;;;;;;2.20;100.00;101834.91;5050415;28;20130;-82
2022/11/29 02:40:46;;;;;;;58.65;51.03;;;;;;;2.23;100.00;101832.06;5051237;28;20060;-79
2022/11/29 02:43:35;;;;;;;58.80;52.47;;;;;;;2.31;100.00;101836.69;5040115;28;20057;-82
2022/11/29 02:46:12;;;;;;;60.38;54.38;;;;;;;2.34;100.00;101831.19;5046371;28;20044;-82
2022/11/29 02:49:00;;;;;;;62.58;52.25;;;;;;;2.37;100.00;101835.38;5045992;28;20052;-81
2022/11/29 02:51:39;;;;;;;54.17;48.28;;;;;;;2.31;100.00;101823.56;5046883;28;20049;-82
2022/11/29 02:54:16;;;;;;;59.65;52.13;;;;;;;2.31;100.00;101817.50;5053577;28;20049;-82
2022/11/29 02:56:51;;;;;;;54.42;47.63;;;;;;;2.23;100.00;101813.69;5046852;28;20049;-81
2022/11/29 02:59:37;;;;;;;61.83;49.92;;;;;;;2.22;100.00;101824.31;5053293;28;20056;-81
2022/11/29 03:02:14;;;;;;;61.95;54.10;;;;;;;2.18;100.00;101815.03;5044468;28;20052;-81
2022/11/29 03:04:47;;;;;;;63.88;57.13;;;;;;;2.11;100.00;101821.72;5052560;28;20045;-83
2022/11/29 03:07:26;;;;;;;64.47;52.17;;;;;;;2.11;100.00;101813.88;5053024;28;20477;-82
2022/11/29 03:10:00;;;;;;;63.63;55.97;;;;;;;2.00;100.00;101822.59;5053303;28;20080;-81
2022/11/29 03:12:38;;;;;;;62.72;56.00;;;;;;;2.08;100.00;101808.88;5053275;28;20064;-81
2022/11/29 03:15:22;;;;;;;62.40;50.63;;;;;;;2.01;100.00;101819.84;5046741;28;20063;-83
2022/11/29 03:18:02;;;;;;;60.95;49.72;;;;;;;1.97;100.00;101818.44;5051218;28;20500;-82
2022/11/29 03:20:37;;;;;;;58.97;52.65;;;;;;;1.90;100.00;101817.25;5051473;28;20052;-81
2022/11/29 03:23:19;;;;;;;62.17;55.40;;;;;;;2.01;100.00;101809.38;5051598;28;20138;-81
2022/11/29 03:25:52;;;;;;;60.80;49.78;;;;;;;1.99;100.00;101810.44;5052864;28;20140;-82
2022/11/29 03:28:22;;;;;;;59.45;52.35;;;;;;;2.00;100.00;101809.50;5052746;28;20053;-81
2022/11/29 03:31:05;;;;;;;59.03;52.63;;;;;;;2.07;100.00;101821.16;5053471;28;20048;-81
2022/11/29 03:33:36;;;;;;;;;;;;;;;1.98;100.00;101811.41;5047128;28;20068;-80
2022/11/29 03:36:11;;;;;;;64.50;52.35;;;;;;;2.03;100.00;101815.34;5053094;28;19974;-82
2022/11/29 03:38:47;;;;;;;62.28;53.15;;;;;;;1.99;100.00;101820.94;5049045;28;20057;-81
2022/11/29 03:41:20;;;;;;;62.92;53.33;;;;;;;1.98;100.00;101816.66;5053828;28;20128;-80
2022/11/29 03:43:55;;;;;;;66.63;56.20;;;;;;;1.90;100.00;101814.63;5052718;28;20507;-83
2022/11/29 03:46:29;;;;;;;63.33;52.03;;;;;;;2.05;100.00;101830.91;5053272;28;20439;-82
2022/11/29 03:49:01;;;;;;;75.63;63.83;;;;;;;2.06;100.00;101829.97;5053309;28;20470;-83
2022/11/29 03:51:38;;;;;;;81.35;66.80;;;;;;;2.16;100.00;101832.69;5052745;28;20045;-81
2022/11/29 03:54:11;;;;;;;71.90;60.00;;;;;;;2.05;100.00;101839.59;5053153;28;20045;-83
2022/11/29 03:56:40;;;;;;;59.33;48.40;;;;;;;2.02;100.00;101829.38;5045684;28;20048;-82
2022/11/29 03:59:29;;;;;;;57.70;51.45;;;;;;;2.16;100.00;101845.78;5052883;28;20088;-80
2022/11/29 04:02:13;;;;;;;60.20;52.50;;;;;;;2.14;100.00;101842.44;5052264;28;20053;-82
2022/11/29 04:05:29;;;;;;;60.45;50.70;;;;;;;2.18;100.00;101834.22;5048797;28;20045;-80
2022/11/29 04:08:17;;;;;;;58.58;47.80;;;;;;;2.03;100.00;101832.84;5053360;28;20061;-82
2022/11/29 04:11:05;;;;;;;61.15;49.30;;;;;;;2.13;100.00;101839.00;5053377;28;20056;-81
2022/11/29 04:14:12;;;;;;;57.10;49.70;;;;;;;2.09;100.00;101844.59;5052776;28;20450;-80
2022/11/29 04:17:10;;;;;;;58.58;52.35;;;;;;;2.05;100.00;101844.03;4991794;28;20050;-80
2022/11/29 04:20:00;;;;;;;57.03;50.60;;;;;;;2.01;100.00;101838.19;5006709;28;20521;-80
2022/11/29 04:23:08;;;;;;;62.10;51.58;;;;;;;1.99;100.00;101834.84;5049499;28;20567;-82
2022/11/29 04:25:48;;;;;;;58.70;49.90;;;;;;;2.03;100.00;101832.84;5023771;28;20060;-82
2022/11/29 04:28:50;;;;;;;58.85;49.95;;;;;;;1.99;100.00;101823.53;5053580;28;20052;-85
2022/11/29 04:31:28;;;;;;;58.90;51.13;;;;;;;2.00;100.00;101827.84;5042676;28;20063;-82
2022/11/29 04:34:21;;;;;;;55.08;49.08;;;;;;;1.98;100.00;101827.13;5052401;28;20547;-81
2022/11/29 04:37:05;;;;;;;;;;;;;;;2.05;100.00;101826.50;5047105;28;20436;-82
2022/11/29 04:39:57;;;;;;;57.83;49.90;;;;;;;2.13;100.00;101823.28;5013492;28;19920;-83
2022/11/29 04:42:42;;;;;;;63.08;50.40;;;;;;;2.09;100.00;101831.50;5056132;28;20056;-83
2022/11/29 04:45:36;;;;;;;59.33;51.03;;;;;;;2.11;100.00;101834.84;5054405;28;20053;-80
2022/11/29 04:48:18;;;;;;;64.20;52.15;;;;;;;2.04;100.00;101832.72;5049240;28;20472;-83
2022/11/29 04:50:57;;;;;;;59.38;50.95;;;;;;;2.10;100.00;101826.16;5051946;28;20474;-81
2022/11/29 04:53:33;;;;;;;57.15;51.00;;;;;;;2.12;100.00;101832.09;5051392;28;20123;-81
2022/11/29 04:56:10;;;;;;;61.65;50.30;;;;;;;2.11;100.00;101821.72;5056326;28;20055;-81
2022/11/29 04:58:41;;;;;;;69.35;55.40;;;;;;;1.98;100.00;101827.97;5055756;28;20470;-82
2022/11/29 05:01:19;;;;;;;56.53;50.33;;;;;;;2.07;100.00;101831.63;5055212;28;20081;-82
2022/11/29 05:03:52;;;;;;;61.78;49.30;;;;;;;2.17;100.00;101836.97;5055424;28;20044;-82
2022/11/29 05:06:27;;;;;;;58.13;51.50;;;;;;;2.16;100.00;101830.06;5047440;28;20053;-81
2022/11/29 05:09:04;;;;;;;55.45;47.03;;;;;;;2.13;100.00;101846.88;5047643;28;20072;-82
2022/11/29 05:11:44;;;;;;;58.78;47.97;;;;;;;1.94;100.00;101846.69;5053288;28;20060;-83
2022/11/29 05:14:20;;;;;;;53.75;46.38;;;;;;;2.11;100.00;101851.38;5054993;28;20122;-82
2022/11/29 05:16:57;;;;;;;61.28;48.40;;;;;;;1.93;100.00;101851.06;5055497;28;20049;-82
2022/11/29 05:19:49;;;;;;;57.63;48.83;;;;;;;2.04;100.00;101844.97;5055689;28;20040;-82
2022/11/29 05:22:28;;;;;;;53.85;46.15;;;;;;;2.13;100.00;101862.59;5040042;28;20099;-83
2022/11/29 05:25:05;;;;;;;57.13;46.63;;;;;;;2.13;100.00;101869.63;5055458;28;20132;-82
2022/11/29 05:27:43;;;;;;;56.08;45.58;;;;;;;2.17;100.00;101871.03;5055400;28;20060;-82
2022/11/29 05:30:14;;;;;;;56.25;47.47;;;;;;;2.03;100.00;101878.22;5053435;28;20083;-81
2022/11/29 05:32:54;;;;;;;59.20;47.10;;;;;;;1.98;100.00;101874.31;5055013;28;20048;-83
2022/11/29 05:35:52;;;;;;;55.55;46.88;;;;;;;2.09;100.00;101874.28;5055309;28;20044;-82
2022/11/29 05:38:52;;;;;;;54.38;46.28;;;;;;;2.11;100.00;101882.00;5055479;28;20131;-83
2022/11/29 05:41:37;;;;;;;59.47;49.10;;;;;;;2.08;100.00;101877.84;5050692;28;20049;-82
2022/11/29 05:44:11;;;;;;;55.72;47.05;;;;;;;2.14;100.00;101874.72;5054777;28;20049;-81
2022/11/29 05:46:50;;;;;;;57.83;48.22;;;;;;;2.09;100.00;101876.06;5054971;28;20453;-81
2022/11/29 05:49:29;;;;;;;61.70;50.08;;;;;;;2.14;100.00;101877.34;5054935;28;20123;-84
2022/11/29 05:52:13;;;;;;;57.33;47.25;;;;;;;2.30;100.00;101884.84;5054277;28;20045;-83
2022/11/29 05:54:46;;;;;;;53.60;47.80;;;;;;;2.14;100.00;101873.91;5054679;28;20049;-81
2022/11/29 05:57:23;;;;;;;54.40;47.30;;;;;;;2.21;100.00;101875.94;5055617;28;20068;-84
2022/11/29 05:59:51;;;;;;;51.17;45.67;;;;;;;2.19;100.00;101879.63;5054561;28;20056;-82
2022/11/29 06:02:34;;;;;;;56.33;46.92;;;;;;;2.30;100.00;101879.59;5053898;28;20053;-83
2022/11/29 06:05:12;;;;;;;58.38;47.95;;;;;;;2.29;100.00;101889.22;5053837;28;20049;-82
2022/11/29 06:07:44;;;;;;;54.55;46.90;;;;;;;2.22;100.00;101879.38;5054229;28;20079;-81
2022/11/29 06:10:12;;;;;;;;;;;;;;;2.24;100.00;101873.06;5050133;28;20084;-80
2022/11/29 06:12:39;;;;;;;72.35;55.72;;;;;;;2.24;100.00;101888.78;5052173;28;20281;-82
2022/11/29 06:15:31;;;;;;;57.60;47.05;;;;;;;2.29;100.00;101885.78;5010054;28;20494;-83
2022/11/29 06:18:12;;;;;;;53.03;45.80;;;;;;;2.45;100.00;101891.47;5038478;28;20118;-81
2022/11/29 06:21:06;;;;;;;53.92;48.13;;;;;;;2.40;100.00;101905.91;5050246;28;20057;-82
2022/11/29 06:23:56;;;;;;;58.05;49.38;;;;;;;2.50;100.00;101902.41;5050752;28;20053;-83
2022/11/29 06:26:39;;;;;;;58.67;49.95;;;;;;;2.34;100.00;101898.53;5044969;28;20067;-82
2022/11/29 06:29:24;;;;;;;55.33;47.25;;;;;;;2.38;100.00;101903.41;5053617;28;20401;-83
2022/11/29 06:31:56;;;;;;;64.28;51.63;;;;;;;2.40;100.00;101891.00;5053571;28;20128;-83
2022/11/29 06:34:33;;;;;;;57.97;50.70;;;;;;;2.46;100.00;101895.75;5053126;28;20096;-83
2022/11/29 06:37:05;;;;;;;54.47;48.55;;;;;;;2.39;100.00;101891.13;5052771;28;20048;-83
2022/11/29 06:39:32;;;;;;;52.22;46.50;;;;;;;2.51;100.00;101893.59;5052219;28;20056;-84
2022/11/29 06:41:59;;;;;;;52.28;46.85;;;;;;;2.57;100.00;101886.16;5053974;28;20041;-83
2022/11/29 06:44:29;;;;;;;52.20;46.05;;;;;;;2.63;100.00;101889.16;5050980;28;20083;-81
2022/11/29 06:47:05;;;;;;;53.50;46.83;;;;;;;2.58;100.00;101893.94;5050574;28;20052;-83
2022/11/29 06:49:39;;;;;;;55.42;48.17;;;;;;;2.60;100.00;101881.50;5048506;28;20056;-83
2022/11/29 06:52:18;;;;;;;53.78;47.58;;;;;;;2.54;100.00;101889.88;5047564;28;20063;-82
2022/11/29 06:55:00;;;;;;;57.50;48.13;;;;;;;2.69;100.00;101890.41;5036557;28;20041;-83
2022/11/29 06:57:34;;;;;;;50.72;45.38;;;;;;;2.38;100.00;101894.69;5041336;28;20045;-82
2022/11/29 07:00:10;;;;;;;55.72;47.38;;;;;;;2.64;100.00;101898.66;5046912;28;20041;-83
2022/11/29 07:02:54;;;;;;;53.30;47.38;;;;;;;2.82;100.00;101887.63;5042434;28;20520;-82
2022/11/29 07:05:25;;;;;;;54.42;44.28;;;;;;;2.64;100.00;101882.94;5038386;28;20060;-83
2022/11/29 07:07:56;;;;;;;54.33;45.40;;;;;;;2.56;100.00;101887.13;5045661;28;20041;-82
2022/11/29 07:10:24;;;;;;;52.38;46.53;;;;;;;2.70;100.00;101879.81;5049806;28;20056;-83
2022/11/29 07:12:52;;;;;;;57.05;50.70;;;;;;;2.79;100.00;101896.59;5043330;28;20056;-81
2022/11/29 07:15:21;;;;;;;51.97;46.08;;;;;;;2.73;100.00;101889.22;5046893;28;20052;-83
2022/11/29 07:18:10;;;;;;;52.42;46.88;;;;;;;2.68;100.00;101888.75;5050558;28;20045;-83
2022/11/29 07:20:47;;;;;;;51.13;45.83;;;;;;;2.80;100.00;101887.75;5050093;28;20052;-81
2022/11/29 07:23:25;;;;;;;54.20;48.25;;;;;;;3.21;100.00;101886.09;5041971;28;20493;-81
2022/11/29 07:26:01;;;;;;;48.67;44.28;;;;;;;6.78;100.00;101887.59;5037363;28;20107;-82
2022/11/29 07:28:43;;;;;;;51.55;46.67;;;;;;;3.36;100.00;101873.44;5042604;28;20136;-82
2022/11/29 07:31:15;;;;;;;54.72;49.42;;;;;;;3.01;100.00;101869.38;5041071;28;20041;-81
2022/11/29 07:33:56;;;;;;;53.25;48.05;;;;;;;2.82;100.00;101877.97;5048378;28;20131;-82
2022/11/29 07:36:34;;;;;;;56.95;51.20;;;;;;;2.79;100.00;101882.66;5040562;28;20111;-81
2022/11/29 07:39:16;;;;;;;53.55;47.92;;;;;;;2.77;100.00;101880.13;5048601;28;20045;-81
2022/11/29 07:41:49;;;;;;;50.63;45.45;;;;;;;2.95;100.00;101881.22;5045352;28;20432;-82
2022/11/29 07:44:25;;;;;;;54.63;48.92;;;;;;;2.94;100.00;101884.00;5044423;28;20084;-83
2022/11/29 07:46:52;;;;;;;51.42;46.22;;;;;;;2.98;100.00;101878.34;5052003;28;20052;-82
2022/11/29 07:49:19;;;;;;;53.45;47.80;;;;;;;3.07;100.00;101883.78;5050768;28;20052;-83
2022/11/29 07:51:45;;;;;;;52.28;46.83;;;;;;;3.03;100.00;101885.84;5050038;28;20492;-83
2022/11/29 07:54:18;;;;;;;51.97;46.42;;;;;;;3.21;100.00;101883.47;5051801;28;20540;-83
2022/11/29 07:56:44;;;;;;;52.10;47.08;;;;;;;6.05;100.00;101885.06;5047835;28;20045;-80
2022/11/29 07:59:11;;;;;;;54.20;49.20;;;;;;;5.48;100.00;101879.88;5040039;28;20056;-81
2022/11/29 08:01:38;;;;;;;55.83;50.50;;;;;;;3.57;100.00;101879.53;5050479;28;20397;-83
2022/11/29 08:04:06;;;;;;;53.67;48.50;;;;;;;3.25;100.00;101881.41;5050733;28;20473;-81
2022/11/29 08:06:32;;;;;;;52.40;47.30;;;;;;;3.26;100.00;101875.19;5050078;28;20052;-80
2022/11/29 08:09:00;;;;;;;51.85;46.72;;;;;;;3.26;100.00;101876.03;5043637;28;20099;-81
2022/11/29 08:11:28;;;;;;;52.15;47.00;;;;;;;3.19;100.00;101880.13;5040308;28;20053;-81
2022/11/29 08:13:56;;;;;;;52.92;47.20;;;;;;;3.05;100.00;101883.09;5047825;28;20041;-81
2022/11/29 08:16:23;;;;;;;57.33;51.35;;;;;;;3.27;100.00;101893.47;5050960;28;20041;-81
2022/11/29 08:18:50;;;;;;;53.75;48.22;;;;;;;3.13;100.00;101885.91;5052367;28;20465;-81
2022/11/29 08:21:17;;;;;;;55.60;49.95;;;;;;;3.22;100.00;101878.09;5047643;28;20481;-82
2022/11/29 08:23:43;;;;;;;52.60;47.50;;;;;;;3.15;100.00;101890.06;5050465;28;20126;-81
2022/11/29 08:26:10;;;;;;;54.33;48.75;;;;;;;3.14;100.00;101882.31;5044764;28;20460;-83
2022/11/29 08:28:38;;;;;;;51.83;46.95;;;;;;;3.31;100.00;101883.53;5042934;28;20045;-82
2022/11/29 08:31:08;;;;;;;52.35;46.70;;;;;;;3.22;100.00;101887.75;5050309;28;20044;-81
2022/11/29 08:33:35;;;;;;;57.40;51.63;;;;;;;3.13;100.00;101881.50;5043157;28;20048;-81
2022/11/29 08:36:05;;;;;;;50.28;45.38;;;;;;;3.49;100.00;101884.59;5053689;28;20107;-82
2022/11/29 08:38:32;;;;;;;52.80;47.72;;;;;;;3.27;100.00;101871.59;5048113;28;20132;-80
2022/11/29 08:41:01;;;;;;;60.63;50.20;;;;;;;3.43;100.00;101878.06;5047409;28;20048;-83
2022/11/29 08:43:29;;;;;;;51.75;46.42;;;;;;;3.17;100.00;101874.19;5042528;28;20056;-80
2022/11/29 08:45:57;;;;;;;52.67;47.35;;;;;;;3.37;100.00;101877.75;5055231;28;20460;-82
2022/11/29 08:48:25;;;;;;;50.63;45.58;;;;;;;3.31;100.00;101873.03;5046980;28;20045;-82
2022/11/29 08:50:53;;;;;;;50.78;45.58;;;;;;;3.35;100.00;101875.25;5048305;28;20041;-81
2022/11/29 08:56:06;;;;;;;50.85;45.65;;;;;;;3.32;100.00;101865.00;5046824;28;20056;-81
2022/11/29 08:58:32;;;;;;;50.92;45.72;;;;;;;3.44;100.00;101860.50;5045509;28;20473;-83
2022/11/29 09:01:00;;;;;;;49.47;44.40;;;;;;;3.48;100.00;101861.91;5051306;28;20064;-83
2022/11/29 09:06:13;;;;;;;51.88;46.50;;;;;;;3.62;100.00;101856.28;5045978;28;20064;-80
2022/11/29 09:08:42;;;;;;;51.75;46.35;;;;;;;3.80;100.00;101858.28;5049620;28;20366;-81
2022/11/29 09:11:12;;;;;;;51.08;45.83;;;;;;;3.63;100.00;101863.22;5039577;28;20473;-81
2022/11/29 09:13:38;;;;;;;52.78;47.33;;;;;;;3.60;100.00;101866.13;5045498;28;20052;-82
2022/11/29 09:16:09;;;;;;;54.60;49.05;;;;;;;3.62;100.00;101858.09;5051687;28;20045;-85
2022/11/29 09:18:38;;;;;;;53.97;48.22;;;;;;;3.69;100.00;101859.22;5039603;28;20049;-82
2022/11/29 09:21:06;;;;;;;53.65;48.03;;;;;;;3.64;100.00;101850.91;5051214;28;20057;-80
2022/11/29 09:23:33;;;;;;;56.55;49.20;;;;;;;3.76;100.00;101843.78;5047902;28;20045;-81
2022/11/29 09:26:00;;;;;;;78.70;59.42;;;;;;;3.60;100.00;101839.84;5042681;28;20088;-81
2022/11/29 09:28:27;;;;;;;66.03;55.90;;;;;;;3.82;100.00;101841.44;5046300;28;20049;-83
2022/11/29 09:30:54;;;;;;;54.15;48.80;;;;;;;3.89;100.00;101844.34;5043355;28;20061;-81
2022/11/29 09:33:22;;;;;;;52.63;47.72;;;;;;;3.74;100.00;101837.81;5046503;28;20060;-83
2022/11/29 09:35:50;;;;;;;51.95;46.85;;;;;;;3.85;100.00;101840.34;5052997;28;20041;-81
2022/11/29 09:38:17;;;;;;;49.65;44.78;;;;;;;3.84;100.00;101834.25;5043433;28;20068;-82
2022/11/29 09:41:03;;;;;;;52.03;46.72;;;;;;;3.97;100.00;101836.63;5040606;28;20045;-81
2022/11/29 09:43:35;;;;;;;49.78;44.70;;;;;;;3.89;100.00;101836.47;5047083;28;20045;-81
2022/11/29 09:46:14;;;;;;;50.70;45.47;;;;;;;3.87;100.00;101833.97;5042031;28;20044;-83
2022/11/29 09:48:59;;;;;;;49.42;44.55;;;;;;;3.84;100.00;101833.41;5052407;28;20049;-81
2022/11/29 09:51:31;;;;;;;50.90;45.83;;;;;;;3.89;100.00;101829.41;5043771;28;20107;-83
2022/11/29 09:54:17;;;;;;;51.47;46.85;;;;;;;3.88;100.00;101830.38;5047853;28;20053;-84
2022/11/29 09:56:48;;;;;;;52.67;47.42;;;;;;;4.00;100.00;101825.00;5039272;28;20452;-83
2022/11/29 09:59:22;;;;;;;51.97;46.85;;;;;;;4.04;100.00;101832.47;5050127;28;20459;-83
2022/11/29 10:01:54;;;;;;;54.42;48.63;;;;;;;3.88;100.00;101830.38;5048667;28;20077;-81
2022/11/29 10:04:25;;;;;;;;;;;;;;;3.84;100.00;101836.03;5049354;28;20370;-83
2022/11/29 10:06:59;;;;;;;49.45;45.03;;;;;;;3.92;100.00;101827.47;5045639;28;20250;-81
2022/11/29 10:09:30;;;;;;;47.55;43.25;;;;;;;3.98;100.00;101833.03;5042390;28;20057;-81
2022/11/29 10:12:04;;;;;;;48.75;44.28;;;;;;;3.82;100.00;101822.22;5041864;28;20042;-83
2022/11/29 10:14:35;;;;;;;50.28;45.22;;;;;;;3.98;100.00;101819.88;5044575;28;20049;-82
2022/11/29 10:17:12;;;;;;;50.33;45.72;;;;;;;4.05;100.00;101807.00;5041710;28;20049;-82
2022/11/29 10:19:44;;;;;;;47.40;43.15;;;;;;;4.05;100.00;101802.56;5038578;28;20053;-81
2022/11/29 10:22:18;;;;;;;49.88;45.67;;;;;;;4.26;100.00;101799.81;5044000;28;20117;-81
2022/11/29 10:24:48;;;;;;;48.00;43.63;;;;;;;4.31;100.00;101809.94;5040222;28;20049;-82
2022/11/29 10:27:19;;;;;;;47.15;42.58;;;;;;;4.06;100.00;101804.25;5042978;28;20045;-81
2022/11/29 10:29:49;;;;;;;47.67;43.13;;;;;;;4.19;100.00;101797.91;5040715;28;20693;-82
2022/11/29 10:32:19;;;;;;;48.15;43.67;;;;;;;4.21;100.00;101809.94;5044649;28;20420;-80
2022/11/29 10:34:47;;;;;;;51.92;46.53;;;;;;;4.18;100.00;101806.78;5044381;28;20069;-80
2022/11/29 10:37:17;;;;;;;68.75;53.55;;;;;;;4.00;100.00;101804.81;5038751;28;20056;-84
2022/11/29 10:39:48;;;;;;;67.70;52.63;;;;;;;4.06;100.00;101806.06;5039099;28;20053;-80
2022/11/29 10:45:03;;;;;;;52.80;47.08;;;;;;;3.85;100.00;101801.72;5037300;28;20121;-83
2022/11/29 10:47:30;;;;;;;49.67;44.75;;;;;;;3.89;100.00;101800.50;5042151;28;20135;-83
2022/11/29 10:49:59;;;;;;;46.95;42.63;;;;;;;3.88;100.00;101800.63;5041174;28;20470;-81
2022/11/29 10:52:26;;;;;;;49.60;44.90;;;;;;;3.92;100.00;101788.06;5046493;28;20080;-80
2022/11/29 10:54:56;;;;;;;48.58;44.05;;;;;;;3.90;100.00;101794.28;5041467;28;20374;-80
2022/11/29 10:57:24;;;;;;;49.13;44.28;;;;;;;3.93;100.00;101800.22;5045318;28;20604;-83
2022/11/29 11:00:01;;;;;;;49.42;44.75;;;;;;;3.99;100.00;101791.78;5050137;28;20045;-82
2022/11/29 11:02:28;;;;;;;46.92;42.33;;;;;;;3.92;100.00;101798.56;5034557;28;20048;-83
2022/11/29 11:04:55;;;;;;;47.78;43.35;;;;;;;4.08;100.00;101789.16;5042167;28;20149;-84
2022/11/29 11:07:27;;;;;;;47.78;42.85;;;;;;;4.18;100.00;101781.31;5042217;28;20088;-82
2022/11/29 11:09:56;;;;;;;48.10;43.77;;;;;;;4.16;100.00;101790.28;5053269;28;20497;-84
2022/11/29 11:12:27;;;;;;;52.90;47.90;;;;;;;4.20;100.00;101781.97;5041156;28;20087;-82
2022/11/29 11:15:14;;;;;;;49.53;44.45;;;;;;;4.24;100.00;101777.28;5052632;28;20053;-83
2022/11/29 11:17:55;;;;;;;49.22;44.45;;;;;;;4.15;100.00;101778.94;5049897;28;20085;-84
2022/11/29 11:20:25;;;;;;;49.45;44.83;;;;;;;4.12;100.00;101772.16;5044567;28;20425;-82
2022/11/29 11:23:00;;;;;;;51.28;45.85;;;;;;;4.37;100.00;101783.09;5043638;28;20080;-82
2022/11/29 11:25:40;;;;;;;54.22;49.03;;;;;;;4.26;100.00;101777.97;5043558;28;20049;-83
2022/11/29 11:28:22;;;;;;;49.95;45.40;;;;;;;4.16;100.00;101771.88;5045152;28;20049;-84
2022/11/29 11:30:52;;;;;;;48.20;43.65;;;;;;;4.33;100.00;101771.19;5044522;28;20056;-84
2022/11/29 11:33:21;;;;;;;45.15;40.92;;;;;;;4.22;100.00;101769.53;5042242;28;20053;-82
2022/11/29 11:36:06;;;;;;;48.05;43.55;;;;;;;4.28;100.00;101768.97;5044540;28;20064;-84
2022/11/29 11:38:35;;;;;;;51.00;46.33;;;;;;;4.16;100.00;101772.72;5046504;28;20057;-81
2022/11/29 11:41:05;;;;;;;98.70;79.45;;;;;;;4.12;100.00;101772.16;5045404;28;20079;-81
2022/11/29 11:43:33;;;;;;;58.92;52.65;;;;;;;4.25;100.00;101768.41;5042407;28;20041;-81
2022/11/29 11:46:00;;;;;;;48.22;43.83;;;;;;;4.16;100.00;101764.81;5044236;28;20044;-83
2022/11/29 11:48:27;;;;;;;47.30;43.00;;;;;;;4.24;100.00;101766.78;5043578;28;20049;-80
2022/11/29 11:50:57;;;;;;;45.13;41.08;;;;;;;4.18;100.00;101772.59;5051212;28;20382;-81